VOE1733 LIMJ-LIRN
Flight info
| Callsign | VOE1733 |
|---|---|
| Flight time | 1h 1m |
| Altitude | 35000 |
| Route | UNITA DCT KONER DCT ELB DCT GILIO DCT RIFFI M729 PNZ |
| Aircraft | A319/M-SDE3FGHIRWY/LB1 |
Departure
| Time | 2026-04-20 17:57 |
|---|---|
| Airport | Genoa Cristoforo Colombo Airport (LIMJ) |
Arrival
| Time | 2026-04-20 18:58 |
|---|---|
| Airport | Naples International Airport (LIRN) |
| Time | Latitude | Longitude | Altitude | Speed | Heading |
|---|---|---|---|---|---|
| 2026-04-20 17:37 | 44.41433 | 8.84953 | 20 ft | 0 kts | 60° |
| 2026-04-20 17:50 | 44.41426 | 8.84938 | 20 ft | 4 kts | 56° |
| 2026-04-20 17:50 | 44.41409 | 8.84909 | 20 ft | 4 kts | 39° |
| 2026-04-20 17:50 | 44.41387 | 8.84890 | 23 ft | 4 kts | 11° |
| 2026-04-20 17:50 | 44.41365 | 8.84893 | 23 ft | 4 kts | 308° |
| 2026-04-20 17:51 | 44.41361 | 8.84901 | 22 ft | 0 kts | 285° |
| 2026-04-20 17:53 | 44.41361 | 8.84900 | 20 ft | 0 kts | 285° |
| 2026-04-20 17:53 | 44.41367 | 8.84872 | 21 ft | 6 kts | 285° |
| 2026-04-20 17:53 | 44.41382 | 8.84789 | 20 ft | 12 kts | 284° |
| 2026-04-20 17:53 | 44.41410 | 8.84645 | 20 ft | 14 kts | 285° |
| 2026-04-20 17:54 | 44.41365 | 8.84498 | 20 ft | 21 kts | 232° |
| 2026-04-20 17:54 | 44.41316 | 8.84349 | 20 ft | 18 kts | 279° |
| 2026-04-20 17:54 | 44.41352 | 8.84165 | 20 ft | 21 kts | 284° |
| 2026-04-20 17:54 | 44.41389 | 8.83969 | 21 ft | 22 kts | 285° |
| 2026-04-20 17:55 | 44.41433 | 8.83751 | 21 ft | 25 kts | 285° |
| 2026-04-20 17:55 | 44.41481 | 8.83507 | 20 ft | 27 kts | 285° |
| 2026-04-20 17:55 | 44.41531 | 8.83250 | 22 ft | 26 kts | 285° |
| 2026-04-20 17:55 | 44.41581 | 8.82994 | 20 ft | 29 kts | 285° |
| 2026-04-20 17:56 | 44.41635 | 8.82716 | 21 ft | 29 kts | 285° |
| 2026-04-20 17:56 | 44.41657 | 8.82529 | 22 ft | 15 kts | 244° |
| 2026-04-20 17:56 | 44.41560 | 8.82484 | 17 ft | 11 kts | 191° |
| 2026-04-20 17:56 | 44.41515 | 8.82550 | 18 ft | 12 kts | 103° |
| 2026-04-20 17:57 | 44.41457 | 8.82848 | 23 ft | 68 kts | 105° |
| 2026-04-20 17:57 | 44.41270 | 8.83814 | 21 ft | 135 kts | 105° |
| 2026-04-20 17:57 | 44.40993 | 8.85256 | 328 ft | 158 kts | 106° |
| 2026-04-20 17:57 | 44.40679 | 8.86720 | 1032 ft | 157 kts | 116° |
| 2026-04-20 17:58 | 44.39889 | 8.87730 | 1632 ft | 158 kts | 156° |
| 2026-04-20 17:58 | 44.38817 | 8.88268 | 2145 ft | 173 kts | 160° |
| 2026-04-20 17:58 | 44.37628 | 8.88876 | 2637 ft | 188 kts | 159° |
| 2026-04-20 17:58 | 44.36389 | 8.89519 | 3331 ft | 191 kts | 159° |
| 2026-04-20 17:59 | 44.35138 | 8.90171 | 4037 ft | 193 kts | 160° |
| 2026-04-20 17:59 | 44.33865 | 8.90839 | 4694 ft | 198 kts | 160° |
| 2026-04-20 17:59 | 44.32455 | 8.91385 | 5074 ft | 223 kts | 167° |
| 2026-04-20 17:59 | 44.30862 | 8.91873 | 5528 ft | 247 kts | 169° |
| 2026-04-20 18:00 | 44.29096 | 8.92379 | 6092 ft | 268 kts | 169° |
| 2026-04-20 18:00 | 44.27234 | 8.92907 | 6907 ft | 277 kts | 170° |
| 2026-04-20 18:00 | 44.25326 | 8.93452 | 7813 ft | 282 kts | 171° |
| 2026-04-20 18:00 | 44.23385 | 8.94008 | 8743 ft | 287 kts | 171° |
| 2026-04-20 18:01 | 44.21404 | 8.94582 | 9636 ft | 293 kts | 171° |
| 2026-04-20 18:01 | 44.19374 | 8.95177 | 10283 ft | 308 kts | 171° |
| 2026-04-20 18:01 | 44.17196 | 8.95815 | 10618 ft | 332 kts | 171° |
| 2026-04-20 18:01 | 44.14871 | 8.96499 | 11073 ft | 348 kts | 171° |
| 2026-04-20 18:02 | 44.12475 | 8.97203 | 11815 ft | 355 kts | 171° |
| 2026-04-20 18:02 | 44.10041 | 8.97919 | 12609 ft | 359 kts | 171° |
| 2026-04-20 18:02 | 44.07581 | 8.98645 | 13405 ft | 363 kts | 171° |
| 2026-04-20 18:02 | 44.05094 | 8.99378 | 14141 ft | 367 kts | 171° |
| 2026-04-20 18:03 | 44.02576 | 9.00118 | 14804 ft | 372 kts | 172° |
| 2026-04-20 18:03 | 44.00055 | 9.00857 | 15459 ft | 377 kts | 172° |
| 2026-04-20 18:03 | 43.97470 | 9.01626 | 16110 ft | 383 kts | 170° |
| 2026-04-20 18:03 | 43.94914 | 9.02855 | 16751 ft | 394 kts | 159° |
| 2026-04-20 18:04 | 43.92513 | 9.04776 | 17383 ft | 404 kts | 147° |
| 2026-04-20 18:04 | 43.90311 | 9.07263 | 18013 ft | 411 kts | 142° |
| 2026-04-20 18:04 | 43.88110 | 9.09835 | 18591 ft | 416 kts | 143° |
| 2026-04-20 18:04 | 43.85878 | 9.12429 | 19143 ft | 421 kts | 143° |
| 2026-04-20 18:05 | 43.81347 | 9.17653 | 20344 ft | 427 kts | 143° |
| 2026-04-20 18:05 | 43.79049 | 9.20288 | 20943 ft | 431 kts | 143° |
| 2026-04-20 18:05 | 43.76731 | 9.22944 | 21521 ft | 434 kts | 143° |
| 2026-04-20 18:06 | 43.74395 | 9.25624 | 22087 ft | 438 kts | 143° |
| 2026-04-20 18:06 | 43.72042 | 9.28329 | 22635 ft | 442 kts | 143° |
| 2026-04-20 18:06 | 43.69671 | 9.31056 | 23170 ft | 445 kts | 143° |
| 2026-04-20 18:06 | 43.67281 | 9.33805 | 23665 ft | 449 kts | 143° |
| 2026-04-20 18:07 | 43.64867 | 9.36577 | 24099 ft | 452 kts | 143° |
| 2026-04-20 18:07 | 43.62441 | 9.39354 | 24555 ft | 454 kts | 143° |
| 2026-04-20 18:07 | 43.60790 | 9.41239 | 24850 ft | 456 kts | 143° |
| 2026-04-20 18:07 | 43.57542 | 9.44944 | 25411 ft | 459 kts | 143° |
| 2026-04-20 18:08 | 43.55876 | 9.46845 | 25692 ft | 461 kts | 143° |
| 2026-04-20 18:08 | 43.53425 | 9.49636 | 26057 ft | 465 kts | 143° |
| 2026-04-20 18:08 | 43.50920 | 9.52487 | 26463 ft | 469 kts | 143° |
| 2026-04-20 18:08 | 43.48362 | 9.55397 | 26875 ft | 472 kts | 143° |
| 2026-04-20 18:09 | 43.45823 | 9.58283 | 27272 ft | 475 kts | 143° |
| 2026-04-20 18:09 | 43.43299 | 9.61149 | 27664 ft | 478 kts | 144° |
| 2026-04-20 18:09 | 43.40726 | 9.64063 | 28032 ft | 481 kts | 143° |
| 2026-04-20 18:09 | 43.38138 | 9.66993 | 28415 ft | 483 kts | 143° |
| 2026-04-20 18:10 | 43.35528 | 9.69943 | 28784 ft | 486 kts | 143° |
| 2026-04-20 18:10 | 43.32907 | 9.72900 | 29145 ft | 489 kts | 143° |
| 2026-04-20 18:10 | 43.30271 | 9.75873 | 29496 ft | 492 kts | 143° |
| 2026-04-20 18:10 | 43.27613 | 9.78864 | 29847 ft | 495 kts | 143° |
| 2026-04-20 18:11 | 43.24945 | 9.81864 | 30161 ft | 497 kts | 143° |
| 2026-04-20 18:11 | 43.22264 | 9.84877 | 30470 ft | 500 kts | 143° |
| 2026-04-20 18:11 | 43.19568 | 9.87902 | 30731 ft | 502 kts | 143° |
| 2026-04-20 18:11 | 43.16869 | 9.90931 | 31142 ft | 501 kts | 143° |
| 2026-04-20 18:12 | 43.14180 | 9.93948 | 31601 ft | 499 kts | 143° |
| 2026-04-20 18:12 | 43.11500 | 9.96948 | 32063 ft | 497 kts | 144° |
| 2026-04-20 18:12 | 43.08828 | 9.99932 | 32517 ft | 495 kts | 144° |
| 2026-04-20 18:12 | 43.06161 | 10.02911 | 32980 ft | 493 kts | 144° |
| 2026-04-20 18:13 | 43.03509 | 10.05872 | 33446 ft | 491 kts | 144° |
| 2026-04-20 18:13 | 43.00865 | 10.08821 | 33920 ft | 490 kts | 144° |
| 2026-04-20 18:13 | 42.98230 | 10.11758 | 34284 ft | 488 kts | 144° |
| 2026-04-20 18:13 | 42.95590 | 10.14691 | 34644 ft | 488 kts | 144° |
| 2026-04-20 18:14 | 42.92958 | 10.17608 | 34897 ft | 489 kts | 144° |
| 2026-04-20 18:14 | 42.90316 | 10.20534 | 34961 ft | 487 kts | 144° |
| 2026-04-20 18:14 | 42.85058 | 10.26344 | 34961 ft | 486 kts | 144° |
| 2026-04-20 18:15 | 42.79808 | 10.32141 | 34965 ft | 486 kts | 144° |
| 2026-04-20 18:15 | 42.74553 | 10.37941 | 34948 ft | 486 kts | 143° |
| 2026-04-20 18:16 | 42.69757 | 10.44462 | 34961 ft | 489 kts | 135° |
| 2026-04-20 18:16 | 42.65133 | 10.51242 | 34962 ft | 489 kts | 135° |
| 2026-04-20 18:17 | 42.60493 | 10.58009 | 34972 ft | 489 kts | 135° |
| 2026-04-20 18:17 | 42.55857 | 10.64765 | 34973 ft | 489 kts | 135° |
| 2026-04-20 18:18 | 42.51217 | 10.71522 | 34957 ft | 489 kts | 135° |
| 2026-04-20 18:18 | 42.46578 | 10.78262 | 34965 ft | 489 kts | 135° |
| 2026-04-20 18:19 | 42.41932 | 10.84998 | 34971 ft | 489 kts | 135° |
| 2026-04-20 18:19 | 42.37283 | 10.91728 | 34984 ft | 489 kts | 135° |
| 2026-04-20 18:20 | 42.32637 | 10.98441 | 34988 ft | 489 kts | 135° |
| 2026-04-20 18:20 | 42.27986 | 11.05143 | 34988 ft | 489 kts | 135° |
| 2026-04-20 18:21 | 42.23328 | 11.11829 | 34985 ft | 489 kts | 135° |
| 2026-04-20 18:21 | 42.18699 | 11.18468 | 34987 ft | 489 kts | 135° |
| 2026-04-20 18:22 | 42.14041 | 11.25138 | 34983 ft | 489 kts | 135° |
| 2026-04-20 18:22 | 42.09382 | 11.31799 | 34993 ft | 489 kts | 135° |
| 2026-04-20 18:23 | 42.04708 | 11.38458 | 34970 ft | 489 kts | 136° |
| 2026-04-20 18:23 | 42.00030 | 11.45104 | 34965 ft | 489 kts | 135° |
| 2026-04-20 18:24 | 41.95349 | 11.51749 | 34969 ft | 490 kts | 136° |
| 2026-04-20 18:24 | 41.90654 | 11.58388 | 34969 ft | 490 kts | 136° |
| 2026-04-20 18:25 | 41.85959 | 11.65008 | 34967 ft | 490 kts | 136° |
| 2026-04-20 18:25 | 41.81255 | 11.71629 | 34976 ft | 490 kts | 136° |
| 2026-04-20 18:26 | 41.76522 | 11.78273 | 34970 ft | 489 kts | 136° |
| 2026-04-20 18:26 | 41.71823 | 11.84865 | 34976 ft | 489 kts | 136° |
| 2026-04-20 18:27 | 41.67124 | 11.91450 | 34979 ft | 489 kts | 136° |
| 2026-04-20 18:27 | 41.62418 | 11.98016 | 34978 ft | 489 kts | 136° |
| 2026-04-20 18:28 | 41.57705 | 12.04585 | 34981 ft | 489 kts | 136° |
| 2026-04-20 18:28 | 41.53019 | 12.11089 | 34965 ft | 490 kts | 136° |
| 2026-04-20 18:29 | 41.48292 | 12.17644 | 34974 ft | 490 kts | 136° |
| 2026-04-20 18:29 | 41.43566 | 12.24190 | 34987 ft | 490 kts | 136° |
| 2026-04-20 18:30 | 41.38828 | 12.30723 | 34990 ft | 490 kts | 136° |
| 2026-04-20 18:30 | 41.34050 | 12.37294 | 35001 ft | 491 kts | 136° |
| 2026-04-20 18:31 | 41.29303 | 12.43814 | 34990 ft | 490 kts | 136° |
| 2026-04-20 18:31 | 41.24583 | 12.50285 | 35006 ft | 490 kts | 136° |
| 2026-04-20 18:32 | 41.19832 | 12.56783 | 35008 ft | 490 kts | 136° |
| 2026-04-20 18:32 | 41.15083 | 12.63275 | 35013 ft | 490 kts | 136° |
| 2026-04-20 18:33 | 41.10332 | 12.69768 | 35015 ft | 490 kts | 136° |
| 2026-04-20 18:33 | 41.05548 | 12.76276 | 34726 ft | 490 kts | 136° |
| 2026-04-20 18:34 | 41.03153 | 12.79523 | 33571 ft | 498 kts | 136° |
| 2026-04-20 18:34 | 41.00708 | 12.82832 | 32352 ft | 506 kts | 136° |
| 2026-04-20 18:34 | 40.98269 | 12.86131 | 31374 ft | 507 kts | 136° |
| 2026-04-20 18:34 | 40.95792 | 12.89480 | 30245 ft | 511 kts | 136° |
| 2026-04-20 18:35 | 40.93441 | 12.93016 | 29270 ft | 510 kts | 127° |
| 2026-04-20 18:35 | 40.91525 | 12.96942 | 28275 ft | 508 kts | 118° |
| 2026-04-20 18:35 | 40.90099 | 13.01190 | 27522 ft | 501 kts | 109° |
| 2026-04-20 18:35 | 40.89104 | 13.05557 | 26816 ft | 493 kts | 105° |
| 2026-04-20 18:36 | 40.88173 | 13.09881 | 26127 ft | 486 kts | 105° |
| 2026-04-20 18:36 | 40.87249 | 13.14145 | 25454 ft | 480 kts | 105° |
| 2026-04-20 18:36 | 40.86334 | 13.18358 | 24777 ft | 475 kts | 105° |
| 2026-04-20 18:36 | 40.85426 | 13.22541 | 24092 ft | 471 kts | 105° |
| 2026-04-20 18:37 | 40.84529 | 13.26677 | 23407 ft | 466 kts | 105° |
| 2026-04-20 18:37 | 40.83641 | 13.30772 | 22734 ft | 461 kts | 105° |
| 2026-04-20 18:37 | 40.82768 | 13.34806 | 22152 ft | 454 kts | 105° |
| 2026-04-20 18:37 | 40.81905 | 13.38787 | 21589 ft | 448 kts | 105° |
| 2026-04-20 18:38 | 40.81049 | 13.42715 | 21044 ft | 443 kts | 105° |
| 2026-04-20 18:38 | 40.80203 | 13.46600 | 20523 ft | 438 kts | 105° |
| 2026-04-20 18:38 | 40.79362 | 13.50446 | 20010 ft | 434 kts | 105° |
| 2026-04-20 18:38 | 40.78524 | 13.54259 | 19513 ft | 431 kts | 105° |
| 2026-04-20 18:39 | 40.77678 | 13.58096 | 18999 ft | 428 kts | 105° |
| 2026-04-20 18:39 | 40.76863 | 13.61801 | 18488 ft | 425 kts | 105° |
| 2026-04-20 18:39 | 40.76070 | 13.65603 | 17914 ft | 422 kts | 101° |
| 2026-04-20 18:39 | 40.75759 | 13.69424 | 17380 ft | 417 kts | 89° |
| 2026-04-20 18:40 | 40.76029 | 13.73194 | 16830 ft | 410 kts | 77° |
| 2026-04-20 18:40 | 40.76842 | 13.76822 | 15753 ft | 418 kts | 65° |
| 2026-04-20 18:40 | 40.78245 | 13.80174 | 15187 ft | 412 kts | 54° |
| 2026-04-20 18:40 | 40.79764 | 13.83288 | 15063 ft | 396 kts | 55° |
| 2026-04-20 18:41 | 40.81198 | 13.86312 | 14942 ft | 381 kts | 55° |
| 2026-04-20 18:41 | 40.82558 | 13.89230 | 14808 ft | 362 kts | 56° |
| 2026-04-20 18:41 | 40.83828 | 13.91969 | 14689 ft | 340 kts | 56° |
| 2026-04-20 18:41 | 40.85026 | 13.94552 | 14572 ft | 321 kts | 56° |
| 2026-04-20 18:42 | 40.86153 | 13.97018 | 14303 ft | 309 kts | 56° |
| 2026-04-20 18:42 | 40.87264 | 13.99462 | 13921 ft | 311 kts | 56° |
| 2026-04-20 18:42 | 40.88367 | 14.01898 | 13592 ft | 303 kts | 56° |
| 2026-04-20 18:42 | 40.89428 | 14.04247 | 13332 ft | 292 kts | 56° |
| 2026-04-20 18:43 | 40.90438 | 14.06485 | 13075 ft | 284 kts | 56° |
| 2026-04-20 18:43 | 40.91459 | 14.08743 | 12820 ft | 282 kts | 56° |
| 2026-04-20 18:43 | 40.92449 | 14.10929 | 12567 ft | 279 kts | 56° |
| 2026-04-20 18:43 | 40.93446 | 14.13124 | 12316 ft | 277 kts | 56° |
| 2026-04-20 18:44 | 40.94432 | 14.15301 | 12068 ft | 275 kts | 56° |
| 2026-04-20 18:44 | 40.95410 | 14.17461 | 11828 ft | 272 kts | 56° |
| 2026-04-20 18:44 | 40.96379 | 14.19604 | 11580 ft | 270 kts | 56° |
| 2026-04-20 18:44 | 40.97023 | 14.21033 | 11417 ft | 268 kts | 56° |
| 2026-04-20 18:45 | 40.97972 | 14.23141 | 11179 ft | 265 kts | 56° |
| 2026-04-20 18:45 | 40.98907 | 14.25221 | 10942 ft | 261 kts | 56° |
| 2026-04-20 18:45 | 40.99830 | 14.27274 | 10709 ft | 258 kts | 55° |
| 2026-04-20 18:45 | 41.00741 | 14.29298 | 10481 ft | 254 kts | 55° |
| 2026-04-20 18:46 | 41.01641 | 14.31293 | 10254 ft | 251 kts | 55° |
| 2026-04-20 18:46 | 41.02536 | 14.33273 | 10034 ft | 250 kts | 55° |
| 2026-04-20 18:46 | 41.03429 | 14.35246 | 9796 ft | 249 kts | 55° |
| 2026-04-20 18:46 | 41.04316 | 14.37216 | 9562 ft | 249 kts | 55° |
| 2026-04-20 18:47 | 41.05202 | 14.39183 | 9332 ft | 247 kts | 55° |
| 2026-04-20 18:47 | 41.06083 | 14.41135 | 9113 ft | 247 kts | 55° |
| 2026-04-20 18:47 | 41.06964 | 14.43087 | 8884 ft | 246 kts | 56° |
| 2026-04-20 18:47 | 41.07848 | 14.45030 | 8663 ft | 246 kts | 54° |
| 2026-04-20 18:48 | 41.08751 | 14.46950 | 8437 ft | 245 kts | 54° |
| 2026-04-20 18:48 | 41.09658 | 14.48853 | 8214 ft | 243 kts | 54° |
| 2026-04-20 18:48 | 41.10552 | 14.50731 | 7991 ft | 239 kts | 54° |
| 2026-04-20 18:48 | 41.11431 | 14.52580 | 7766 ft | 235 kts | 54° |
| 2026-04-20 18:49 | 41.12301 | 14.54407 | 7507 ft | 236 kts | 54° |
| 2026-04-20 18:49 | 41.13185 | 14.56265 | 7208 ft | 240 kts | 54° |
| 2026-04-20 18:49 | 41.13917 | 14.58245 | 6877 ft | 240 kts | 75° |
| 2026-04-20 18:49 | 41.13955 | 14.60419 | 6634 ft | 235 kts | 104° |
| 2026-04-20 18:50 | 41.13276 | 14.62323 | 6390 ft | 224 kts | 135° |
| 2026-04-20 18:50 | 41.12111 | 14.63583 | 6148 ft | 213 kts | 160° |
| 2026-04-20 18:50 | 41.10730 | 14.64067 | 5990 ft | 201 kts | 185° |
| 2026-04-20 18:50 | 41.09387 | 14.63818 | 5863 ft | 191 kts | 206° |
| 2026-04-20 18:51 | 41.08254 | 14.62979 | 5733 ft | 184 kts | 221° |
| 2026-04-20 18:51 | 41.07223 | 14.61971 | 5610 ft | 184 kts | 221° |
| 2026-04-20 18:51 | 41.06193 | 14.60968 | 5492 ft | 184 kts | 221° |
| 2026-04-20 18:51 | 41.05164 | 14.59962 | 5359 ft | 184 kts | 221° |
| 2026-04-20 18:52 | 41.04133 | 14.58952 | 5272 ft | 185 kts | 221° |
| 2026-04-20 18:52 | 41.03098 | 14.57938 | 5207 ft | 185 kts | 221° |
| 2026-04-20 18:52 | 41.02070 | 14.56933 | 5210 ft | 184 kts | 221° |
| 2026-04-20 18:52 | 41.01172 | 14.55739 | 5075 ft | 182 kts | 239° |
| 2026-04-20 18:53 | 41.00471 | 14.54335 | 4844 ft | 182 kts | 241° |
| 2026-04-20 18:53 | 40.99796 | 14.52913 | 4582 ft | 183 kts | 240° |
| 2026-04-20 18:53 | 40.99128 | 14.51493 | 4316 ft | 181 kts | 240° |
| 2026-04-20 18:53 | 40.98459 | 14.50066 | 4068 ft | 183 kts | 240° |
| 2026-04-20 18:54 | 40.97790 | 14.48637 | 3781 ft | 182 kts | 240° |
| 2026-04-20 18:54 | 40.97129 | 14.47226 | 3513 ft | 179 kts | 239° |
| 2026-04-20 18:54 | 40.96481 | 14.45842 | 3254 ft | 176 kts | 239° |
| 2026-04-20 18:54 | 40.95838 | 14.44472 | 2990 ft | 174 kts | 238° |
| 2026-04-20 18:55 | 40.95205 | 14.43121 | 2744 ft | 171 kts | 238° |
| 2026-04-20 18:55 | 40.94589 | 14.41809 | 2482 ft | 163 kts | 238° |
| 2026-04-20 18:55 | 40.94006 | 14.40567 | 2247 ft | 155 kts | 237° |
| 2026-04-20 18:55 | 40.93456 | 14.39396 | 2025 ft | 145 kts | 237° |
| 2026-04-20 18:56 | 40.92932 | 14.38281 | 1812 ft | 141 kts | 237° |
| 2026-04-20 18:56 | 40.92425 | 14.37201 | 1616 ft | 133 kts | 237° |
| 2026-04-20 18:56 | 40.91941 | 14.36173 | 1411 ft | 130 kts | 237° |
| 2026-04-20 18:56 | 40.91467 | 14.35165 | 1222 ft | 129 kts | 237° |
| 2026-04-20 18:57 | 40.90995 | 14.34161 | 1024 ft | 128 kts | 236° |
| 2026-04-20 18:57 | 40.90528 | 14.33168 | 845 ft | 125 kts | 234° |
| 2026-04-20 18:57 | 40.90071 | 14.32191 | 644 ft | 125 kts | 235° |
| 2026-04-20 18:57 | 40.89619 | 14.31224 | 401 ft | 123 kts | 234° |
| 2026-04-20 18:58 | 40.89161 | 14.30268 | 264 ft | 122 kts | 236° |
| 2026-04-20 18:58 | 40.88734 | 14.29362 | 255 ft | 100 kts | 238° |
| 2026-04-20 18:58 | 40.88458 | 14.28774 | 279 ft | 51 kts | 238° |
| 2026-04-20 18:58 | 40.88349 | 14.28556 | 285 ft | 21 kts | 227° |
| 2026-04-20 18:59 | 40.88241 | 14.28435 | 286 ft | 20 kts | 210° |
| 2026-04-20 18:59 | 40.88162 | 14.28378 | 288 ft | 4 kts | 208° |
| 2026-04-20 18:59 | 40.88141 | 14.28364 | 293 ft | 3 kts | 208° |
| 2026-04-20 18:59 | 40.88138 | 14.28361 | 292 ft | 0 kts | 209° |
| 2026-04-20 19:00 | 40.88136 | 14.28360 | 289 ft | 0 kts | 209° |
| 2026-04-20 19:00 | 40.88132 | 14.28357 | 289 ft | 2 kts | 209° |
| 2026-04-20 19:00 | 40.88095 | 14.28329 | 293 ft | 11 kts | 210° |
| 2026-04-20 19:00 | 40.88065 | 14.28242 | 292 ft | 11 kts | 256° |
| 2026-04-20 19:01 | 40.88021 | 14.28141 | 297 ft | 11 kts | 232° |
| 2026-04-20 19:01 | 40.87960 | 14.28188 | 296 ft | 15 kts | 99° |
| 2026-04-20 19:01 | 40.87956 | 14.28219 | 295 ft | 0 kts | 99° |
| 2026-04-20 19:02 | 40.87953 | 14.28246 | 295 ft | 9 kts | 97° |
| 2026-04-20 19:02 | 40.87941 | 14.28339 | 297 ft | 8 kts | 118° |
| 2026-04-20 19:02 | 40.87903 | 14.28348 | 297 ft | 5 kts | 189° |
| 2026-04-20 19:03 | 40.87886 | 14.28345 | 296 ft | 1 kts | 188° |
| 2026-04-20 19:03 | 40.87880 | 14.28344 | 298 ft | 1 kts | 187° |
| 2026-04-20 19:03 | 40.87877 | 14.28343 | 298 ft | 0 kts | 187° |